createdAt,value
2019-05-20T00:01:08.626Z,3.60
2019-05-20T00:03:29.965Z,3.90
2019-05-20T00:05:51.316Z,3.50
2019-05-20T00:08:12.554Z,3.73
2019-05-20T00:10:33.732Z,4.00
2019-05-20T00:12:55.046Z,4.23
2019-05-20T00:15:16.323Z,4.03
2019-05-20T00:17:37.532Z,4.00
2019-05-20T00:19:58.752Z,4.00
2019-05-20T00:22:19.958Z,3.83
2019-05-20T00:24:41.141Z,4.07
2019-05-20T00:27:02.434Z,3.57
2019-05-20T00:29:23.696Z,3.90
2019-05-20T00:31:44.981Z,4.07
2019-05-20T00:34:06.178Z,3.83
2019-05-20T00:36:27.363Z,3.57
2019-05-20T00:39:07.368Z,3.17
2019-05-20T00:41:28.557Z,3.87
2019-05-20T00:43:50.023Z,3.47
2019-05-20T00:46:11.302Z,3.73
2019-05-20T00:48:32.499Z,3.67
2019-05-20T00:50:54.682Z,3.50
2019-05-20T00:53:15.873Z,3.60
2019-05-20T00:55:37.750Z,3.50
2019-05-20T00:57:58.986Z,3.60
2019-05-20T01:00:20.478Z,3.63
2019-05-20T01:02:55.816Z,3.47
2019-05-20T01:05:04.954Z,3.50
2019-05-20T01:07:26.241Z,3.00
2019-05-20T01:09:47.537Z,4.20
2019-05-20T01:12:08.724Z,3.30
2019-05-20T01:14:30.030Z,3.40
2019-05-20T01:16:51.228Z,3.70
2019-05-20T01:19:12.430Z,4.73
2019-05-20T01:21:33.638Z,3.50
2019-05-20T01:23:54.836Z,4.43
2019-05-20T01:26:16.012Z,3.57
2019-05-20T01:28:37.480Z,4.77
2019-05-20T01:30:58.785Z,3.83
2019-05-20T01:33:19.985Z,3.80
2019-05-20T01:35:41.180Z,3.93
2019-05-20T01:38:02.386Z,4.20
2019-05-20T01:40:23.573Z,4.40
2019-05-20T01:42:44.764Z,4.20
2019-05-20T01:45:06.764Z,4.50
2019-05-20T01:47:27.959Z,4.20
2019-05-20T01:49:49.252Z,4.50
2019-05-20T01:52:10.762Z,4.73
2019-05-20T01:54:31.974Z,4.60
2019-05-20T01:56:53.250Z,5.00
2019-05-20T01:59:14.478Z,5.00
2019-05-20T02:01:35.666Z,4.90
2019-05-20T02:03:56.867Z,4.73
2019-05-20T02:06:18.054Z,4.77
2019-05-20T02:08:39.267Z,5.00
2019-05-20T02:11:00.471Z,5.47
2019-05-20T02:13:23.582Z,5.47
2019-05-20T02:15:52.233Z,5.93
2019-05-20T02:18:13.413Z,5.40
2019-05-20T02:20:34.711Z,6.23
2019-05-20T02:23:14.638Z,6.20
2019-05-20T02:25:36.103Z,6.63
2019-05-20T02:27:57.374Z,5.63
2019-05-20T02:30:18.832Z,6.43
2019-05-20T02:32:40.081Z,6.33
2019-05-20T02:35:02.029Z,7.03
2019-05-20T02:37:23.278Z,6.77
2019-05-20T02:39:44.473Z,6.93
2019-05-20T02:42:05.662Z,7.00
2019-05-20T02:44:26.872Z,7.47
2019-05-20T02:46:48.812Z,7.30
2019-05-20T02:49:10.242Z,7.43
2019-05-20T02:51:31.451Z,7.57
2019-05-20T02:53:53.005Z,7.67
2019-05-20T02:56:14.210Z,7.90
2019-05-20T02:58:35.404Z,8.53
2019-05-20T03:00:56.617Z,7.77
2019-05-20T03:03:17.807Z,8.40
2019-05-20T03:05:38.998Z,8.30
2019-05-20T03:08:00.229Z,8.00
2019-05-20T03:10:21.421Z,8.23
2019-05-20T03:12:42.707Z,8.50
2019-05-20T03:15:05.211Z,9.23
2019-05-20T03:17:26.413Z,9.00
2019-05-20T03:19:47.606Z,9.40
2019-05-20T03:22:08.782Z,9.00
2019-05-20T03:24:29.977Z,9.43
2019-05-20T03:26:51.614Z,9.87
2019-05-20T03:29:12.990Z,9.10
2019-05-20T03:31:34.331Z,9.90
2019-05-20T03:33:55.609Z,10.00
2019-05-20T03:36:19.878Z,9.97
2019-05-20T03:38:41.486Z,11.07
2019-05-20T03:41:03.194Z,9.80
2019-05-20T03:43:24.370Z,10.63
2019-05-20T03:45:45.569Z,10.63
2019-05-20T03:48:06.754Z,11.23
2019-05-20T03:50:27.957Z,11.70
2019-05-20T03:52:49.141Z,11.33
2019-05-20T03:55:10.618Z,11.70
2019-05-20T03:57:31.814Z,14.03
2019-05-20T03:59:53.022Z,12.20
2019-05-20T04:02:14.233Z,13.10
2019-05-20T04:04:35.404Z,12.67
2019-05-20T04:06:56.783Z,12.47
2019-05-20T04:09:18.276Z,11.73
2019-05-20T04:11:39.484Z,12.37
2019-05-20T04:14:00.666Z,13.17
2019-05-20T04:16:21.894Z,13.07
2019-05-20T04:18:43.097Z,13.10
2019-05-20T04:21:04.675Z,13.53
2019-05-20T04:23:26.216Z,13.93
2019-05-20T04:25:47.595Z,14.03
2019-05-20T04:28:08.856Z,17.90
2019-05-20T04:30:30.274Z,44.47
2019-05-20T04:32:51.558Z,20.40
2019-05-20T04:35:21.936Z,30.20
2019-05-20T04:37:36.154Z,25.13
2019-05-20T04:39:57.597Z,18.43
2019-05-20T04:42:18.839Z,14.47
2019-05-20T04:44:40.341Z,13.37
2019-05-20T04:47:02.653Z,13.37
2019-05-20T04:49:23.840Z,15.27
2019-05-20T04:51:45.051Z,15.27
2019-05-20T04:54:06.226Z,23.47
2019-05-20T04:56:29.374Z,16.87
2019-05-20T04:58:50.694Z,20.93
2019-05-20T05:01:11.888Z,21.07
2019-05-20T05:03:33.389Z,16.90
2019-05-20T05:05:54.839Z,17.63
2019-05-20T05:08:17.550Z,14.73
2019-05-20T05:10:38.975Z,12.83
2019-05-20T05:13:00.301Z,13.73
2019-05-20T05:15:21.624Z,12.80
2019-05-20T05:17:43.119Z,14.90
2019-05-20T05:20:05.098Z,13.37
2019-05-20T05:22:26.544Z,12.23
2019-05-20T05:24:47.753Z,18.13
2019-05-20T05:27:10.049Z,20.03
2019-05-20T05:29:31.282Z,15.67
2019-05-20T05:31:52.669Z,12.87
2019-05-20T05:34:13.870Z,12.50
2019-05-20T05:36:35.078Z,13.10
2019-05-20T05:38:56.295Z,13.40
2019-05-20T05:41:17.604Z,12.67
2019-05-20T05:43:38.874Z,12.63
2019-05-20T05:46:00.063Z,13.03
2019-05-20T05:48:22.467Z,12.43
2019-05-20T05:50:43.648Z,13.00
2019-05-20T05:53:04.857Z,12.90
2019-05-20T05:55:26.185Z,12.87
2019-05-20T05:57:47.402Z,12.77
2019-05-20T06:00:09.454Z,13.43
2019-05-20T06:02:30.774Z,13.67
2019-05-20T06:04:52.343Z,13.37
2019-05-20T06:07:13.548Z,12.93
2019-05-20T06:09:34.820Z,12.97
2019-05-20T06:11:56.048Z,12.63
2019-05-20T06:14:17.327Z,13.00
2019-05-20T06:16:38.851Z,13.53
2019-05-20T06:19:00.144Z,12.40
2019-05-20T06:21:21.341Z,13.10
2019-05-20T06:23:42.659Z,13.37
2019-05-20T06:26:03.980Z,14.30
2019-05-20T06:28:25.286Z,13.47
2019-05-20T06:30:46.502Z,13.50
2019-05-20T06:33:07.728Z,14.00
2019-05-20T06:35:29.024Z,13.03
2019-05-20T06:37:52.207Z,15.40
2019-05-20T06:40:13.727Z,14.33
2019-05-20T06:42:34.972Z,14.07
2019-05-20T06:44:57.447Z,14.97
2019-05-20T06:47:19.879Z,13.77
2019-05-20T06:49:41.214Z,13.93
2019-05-20T06:52:02.616Z,14.37
2019-05-20T06:54:23.841Z,13.27
2019-05-20T06:56:45.173Z,14.03
2019-05-20T06:59:07.105Z,14.47
2019-05-20T07:01:28.385Z,15.27
2019-05-20T07:03:49.701Z,14.17
2019-05-20T07:06:11.149Z,15.30
2019-05-20T07:08:32.698Z,14.97
2019-05-20T07:10:53.989Z,16.27
2019-05-20T07:13:16.311Z,15.20
2019-05-20T07:15:37.890Z,13.27
2019-05-20T07:17:59.175Z,14.77
2019-05-20T07:20:20.369Z,14.67
2019-05-20T07:22:55.381Z,14.03
2019-05-20T07:25:06.670Z,13.80
2019-05-20T07:27:28.384Z,13.57
2019-05-20T07:29:49.741Z,15.50
2019-05-20T07:32:10.973Z,14.10
2019-05-20T07:34:32.412Z,13.37
2019-05-20T07:37:03.401Z,13.57
2019-05-20T07:39:16.851Z,14.77
2019-05-20T07:41:41.402Z,13.43
2019-05-20T07:44:01.437Z,13.03
2019-05-20T07:46:22.821Z,13.17
2019-05-20T07:48:44.186Z,12.97
2019-05-20T07:51:07.145Z,13.03
2019-05-20T07:53:29.406Z,13.33
2019-05-20T07:56:14.729Z,12.57
2019-05-20T07:58:57.800Z,19.60
2019-05-20T08:01:19.302Z,27.13
2019-05-20T08:03:40.486Z,13.70
2019-05-20T08:06:01.791Z,13.10
2019-05-20T08:08:22.976Z,13.87
2019-05-20T08:10:44.505Z,13.17
2019-05-20T08:13:05.900Z,13.10
2019-05-20T08:15:27.310Z,13.37
2019-05-20T08:17:48.495Z,12.83
2019-05-20T08:20:11.108Z,13.20
2019-05-20T08:22:32.396Z,13.90
2019-05-20T08:24:53.708Z,12.33
2019-05-20T08:27:15.142Z,12.67
2019-05-20T08:29:37.092Z,12.00
2019-05-20T08:31:58.406Z,12.73
2019-05-20T08:34:19.837Z,12.40
2019-05-20T08:36:41.026Z,12.83
2019-05-20T08:39:05.041Z,13.70
2019-05-20T08:41:26.349Z,12.70
2019-05-20T08:43:47.667Z,12.93
2019-05-20T08:46:08.983Z,12.50
2019-05-20T08:48:30.177Z,12.90
2019-05-20T08:50:51.474Z,13.00
2019-05-20T08:53:12.673Z,13.17
2019-05-20T08:55:33.974Z,12.87
2019-05-20T08:57:55.169Z,12.93
2019-05-20T09:00:24.244Z,13.50
2019-05-20T09:02:45.868Z,13.10
2019-05-20T09:05:07.448Z,12.93
2019-05-20T09:07:28.697Z,12.17
2019-05-20T09:09:50.016Z,12.73
2019-05-20T09:12:16.472Z,13.37
2019-05-20T09:14:40.477Z,12.70
2019-05-20T09:17:00.790Z,13.93
2019-05-20T09:19:21.989Z,12.10
2019-05-20T09:22:03.079Z,11.97
2019-05-20T09:24:24.388Z,12.20
2019-05-20T09:26:45.694Z,11.90
2019-05-20T09:29:10.778Z,12.10
2019-05-20T09:31:30.059Z,11.93
2019-05-20T09:33:51.583Z,13.83
2019-05-20T09:36:12.973Z,12.63
2019-05-20T09:38:36.969Z,13.70
2019-05-20T09:40:57.406Z,12.40
2019-05-20T09:43:18.787Z,12.33
2019-05-20T09:45:41.347Z,14.57
2019-05-20T09:48:03.334Z,13.40
2019-05-20T09:50:24.531Z,14.20
2019-05-20T09:52:45.864Z,13.93
2019-05-20T09:55:07.287Z,13.87
2019-05-20T09:57:28.598Z,13.13
2019-05-20T09:59:50.881Z,13.30
2019-05-20T10:02:12.094Z,13.30
2019-05-20T10:04:33.284Z,13.63
2019-05-20T10:06:54.575Z,13.13
2019-05-20T10:09:15.757Z,14.17
2019-05-20T10:11:37.054Z,14.23
2019-05-20T10:13:58.235Z,14.00
2019-05-20T10:16:19.444Z,13.60
2019-05-20T10:18:40.637Z,13.00
2019-05-20T10:21:01.869Z,12.43
2019-05-20T10:23:23.250Z,13.20
2019-05-20T10:25:44.442Z,14.20
2019-05-20T10:28:05.637Z,14.33
2019-05-20T10:30:26.850Z,13.40
2019-05-20T10:32:48.089Z,13.53
2019-05-20T10:35:09.525Z,13.07
2019-05-20T10:37:30.846Z,12.77
2019-05-20T10:39:52.032Z,13.60
2019-05-20T10:42:13.231Z,14.27
2019-05-20T10:44:34.425Z,13.97
2019-05-20T10:46:55.749Z,15.33
2019-05-20T10:49:16.954Z,14.80
2019-05-20T10:51:38.165Z,13.77
2019-05-20T10:53:59.360Z,14.57
2019-05-20T10:56:20.569Z,14.90
2019-05-20T10:58:42.907Z,14.63
2019-05-20T11:01:04.218Z,13.83
2019-05-20T11:03:25.534Z,14.80
2019-05-20T11:05:46.727Z,15.03
2019-05-20T11:08:07.960Z,13.50
2019-05-20T11:10:30.351Z,14.13
2019-05-20T11:12:55.373Z,14.00
2019-05-20T11:15:17.676Z,14.10
2019-05-20T11:17:40.765Z,13.10
2019-05-20T11:20:07.238Z,15.27
2019-05-20T11:22:31.589Z,14.40
2019-05-20T11:24:53.483Z,14.40
2019-05-20T11:30:42.581Z,15.07
2019-05-20T11:36:36.997Z,15.00
2019-05-20T11:39:02.404Z,14.20
2019-05-20T11:41:54.246Z,14.30
2019-05-20T11:44:00.174Z,14.43
2019-05-20T11:46:21.386Z,14.67
2019-05-20T11:48:47.746Z,15.70
2019-05-20T11:51:12.702Z,15.70
2019-05-20T11:53:34.067Z,16.00
2019-05-20T11:55:55.261Z,15.43
2019-05-20T11:58:17.620Z,17.07
2019-05-20T12:00:42.159Z,17.20
2019-05-20T12:03:12.576Z,17.77
2019-05-20T12:05:35.925Z,17.13
2019-05-20T12:07:57.645Z,18.30
2019-05-20T12:10:32.463Z,17.97
2019-05-20T12:12:55.912Z,20.10
2019-05-20T12:15:22.271Z,19.10
2019-05-20T12:17:43.487Z,18.00
2019-05-20T12:20:11.496Z,18.27
2019-05-20T12:22:32.526Z,18.33
2019-05-20T12:24:54.274Z,19.83
2019-05-20T12:27:15.890Z,18.53
2019-05-20T12:29:37.130Z,18.87
2019-05-20T12:32:03.237Z,18.23
2019-05-20T12:34:22.215Z,18.43
2019-05-20T12:36:44.296Z,18.57
2019-05-20T12:39:08.024Z,18.03
2019-05-20T12:41:30.204Z,18.20
2019-05-20T12:44:10.159Z,17.03
2019-05-20T12:46:20.210Z,19.90
2019-05-20T12:48:46.986Z,17.73
2019-05-20T12:51:08.346Z,17.77
2019-05-20T12:53:29.571Z,18.73
2019-05-20T12:55:55.896Z,18.50
2019-05-20T12:58:18.957Z,18.73
2019-05-20T13:00:40.282Z,21.67
2019-05-20T13:03:01.493Z,28.03
2019-05-20T13:05:31.503Z,51.60
2019-05-20T13:07:54.862Z,83.13
2019-05-20T13:10:28.872Z,68.50
2019-05-20T13:12:54.770Z,60.73
2019-05-20T13:15:16.812Z,67.43
2019-05-20T13:17:44.412Z,53.83
2019-05-20T13:20:03.659Z,63.97
2019-05-20T13:22:25.164Z,53.97
2019-05-20T13:24:46.502Z,63.23
2019-05-20T13:27:09.407Z,53.80
2019-05-20T13:29:32.690Z,53.97
2019-05-20T13:31:55.100Z,72.00
2019-05-20T13:34:18.835Z,61.73
2019-05-20T13:36:41.277Z,57.33
2019-05-20T13:39:06.376Z,80.20
2019-05-20T13:41:37.701Z,66.37
2019-05-20T13:44:10.038Z,81.10
2019-05-20T13:46:54.646Z,89.63
2019-05-20T13:49:21.253Z,66.83
2019-05-20T13:51:48.808Z,56.20
2019-05-20T13:54:10.985Z,51.03
2019-05-20T13:56:35.245Z,55.53
2019-05-20T13:59:07.844Z,42.83
2019-05-20T14:01:29.389Z,49.13
2019-05-20T14:03:50.711Z,34.60
2019-05-20T14:06:11.922Z,40.90
2019-05-20T14:08:33.110Z,40.63
2019-05-20T14:11:03.530Z,44.90
2019-05-20T14:13:17.507Z,43.37
2019-05-20T14:15:38.758Z,45.03
2019-05-20T14:18:00.012Z,45.50
2019-05-20T14:20:21.330Z,37.47
2019-05-20T14:22:42.521Z,43.23
2019-05-20T14:25:05.736Z,37.00
2019-05-20T14:27:27.024Z,38.97
2019-05-20T14:29:48.219Z,34.43
2019-05-20T14:32:09.564Z,36.60
2019-05-20T14:34:30.809Z,39.10
2019-05-20T14:36:53.043Z,36.67
2019-05-20T14:39:14.502Z,31.97
2019-05-20T14:41:35.756Z,35.10
2019-05-20T14:43:57.006Z,69.03
2019-05-20T14:46:18.222Z,44.20
2019-05-20T14:48:39.654Z,37.30
2019-05-20T14:51:00.894Z,36.47
2019-05-20T14:53:23.289Z,37.83
2019-05-20T14:55:44.868Z,35.60
2019-05-20T14:58:06.102Z,38.37
2019-05-20T15:00:27.302Z,39.60
2019-05-20T15:02:48.505Z,37.97
2019-05-20T15:05:09.817Z,37.27
2019-05-20T15:07:32.324Z,40.20
2019-05-20T15:09:53.632Z,37.40
2019-05-20T15:12:14.834Z,37.00
2019-05-20T15:14:36.022Z,34.27
2019-05-20T15:16:57.272Z,36.57
2019-05-20T15:19:18.569Z,33.37
2019-05-20T15:22:01.723Z,32.93
2019-05-20T15:24:22.911Z,33.30
2019-05-20T15:26:44.156Z,32.50
2019-05-20T15:29:06.148Z,31.63
2019-05-20T15:31:27.816Z,34.50
2019-05-20T15:33:49.036Z,31.90
2019-05-20T15:36:10.277Z,34.90
2019-05-20T15:38:51.374Z,34.80
2019-05-20T15:41:12.685Z,37.53
2019-05-20T15:43:33.896Z,32.63
2019-05-20T15:46:08.918Z,34.93
2019-05-20T15:48:30.246Z,28.83
2019-05-20T15:50:51.520Z,30.47
2019-05-20T15:53:13.545Z,30.40
2019-05-20T15:55:35.125Z,32.10
2019-05-20T15:57:56.527Z,28.13
2019-05-20T16:00:19.893Z,27.20
2019-05-20T16:02:41.793Z,26.90
2019-05-20T16:05:04.959Z,27.37
2019-05-20T16:07:26.393Z,27.37
2019-05-20T16:09:47.598Z,30.00
2019-05-20T16:12:09.077Z,26.20
2019-05-20T16:14:31.470Z,26.97
2019-05-20T16:16:52.694Z,27.67
2019-05-20T16:19:16.406Z,32.43
2019-05-20T16:21:37.659Z,28.10
2019-05-20T16:24:02.220Z,30.93
2019-05-20T16:26:23.690Z,29.80
2019-05-20T16:28:45.176Z,28.73
2019-05-20T16:31:06.536Z,25.50
2019-05-20T16:33:31.023Z,26.13
2019-05-20T16:35:52.561Z,24.83
2019-05-20T16:38:13.981Z,26.97
2019-05-20T16:40:35.438Z,24.37
2019-05-20T16:42:56.838Z,21.07
2019-05-20T16:45:18.674Z,25.37
2019-05-20T16:47:39.927Z,26.17
2019-05-20T16:50:01.637Z,24.80
2019-05-20T16:52:24.903Z,24.70
2019-05-20T16:54:46.384Z,23.13
2019-05-20T16:57:07.873Z,26.20
2019-05-20T16:59:29.103Z,26.67
2019-05-20T17:01:54.106Z,26.80
2019-05-20T17:04:15.631Z,23.10
2019-05-20T17:06:36.945Z,25.23
2019-05-20T17:08:58.166Z,24.73
2019-05-20T17:11:19.462Z,26.17
2019-05-20T17:13:40.694Z,23.57
2019-05-20T17:16:03.441Z,25.47
2019-05-20T17:18:24.744Z,24.10
2019-05-20T17:20:59.272Z,23.03
2019-05-20T17:23:20.471Z,25.10
2019-05-20T17:25:41.694Z,21.00
2019-05-20T17:28:03.317Z,22.83
2019-05-20T17:30:24.667Z,23.17
2019-05-20T17:32:47.175Z,23.97
2019-05-20T17:35:08.873Z,21.53
2019-05-20T17:37:30.625Z,24.17
2019-05-20T17:39:52.118Z,21.17
2019-05-20T17:42:13.331Z,23.67
2019-05-20T17:44:34.713Z,25.33
2019-05-20T17:46:56.162Z,25.40
2019-05-20T17:49:18.737Z,28.23
2019-05-20T17:51:43.188Z,25.57
2019-05-20T17:54:03.161Z,22.80
2019-05-20T17:56:25.688Z,25.27
2019-05-20T17:58:46.900Z,25.80
2019-05-20T18:01:15.155Z,25.70
2019-05-20T18:03:31.189Z,31.07
2019-05-20T18:05:52.397Z,30.60
2019-05-20T18:08:13.983Z,33.80
2019-05-20T18:10:35.189Z,33.77
2019-05-20T18:12:56.558Z,30.67
2019-05-20T18:15:18.049Z,33.67
2019-05-20T18:17:39.237Z,35.33
2019-05-20T18:20:00.472Z,33.90
2019-05-20T18:22:21.682Z,35.77
2019-05-20T18:24:42.908Z,34.67
2019-05-20T18:27:04.500Z,34.50
2019-05-20T18:29:25.710Z,34.43
2019-05-20T18:31:46.935Z,33.17
2019-05-20T18:34:08.241Z,34.53
2019-05-20T18:36:29.440Z,31.87
2019-05-20T18:38:50.642Z,36.70
2019-05-20T18:41:11.833Z,32.50
2019-05-20T18:43:33.083Z,30.53
2019-05-20T18:45:54.537Z,30.70
2019-05-20T18:48:15.730Z,52.63
2019-05-20T18:50:36.935Z,80.40
2019-05-20T18:52:58.219Z,80.77
2019-05-20T18:55:19.418Z,43.90
2019-05-20T18:57:40.744Z,33.80
2019-05-20T19:00:04.658Z,30.23
2019-05-20T19:02:26.385Z,30.70
2019-05-20T19:04:47.813Z,30.53
2019-05-20T19:07:08.998Z,37.90
2019-05-20T19:09:30.242Z,44.77
2019-05-20T19:11:51.430Z,45.67
2019-05-20T19:14:12.637Z,46.37
2019-05-20T19:16:34.044Z,46.73
2019-05-20T19:18:56.714Z,48.37
2019-05-20T19:21:17.898Z,49.10
2019-05-20T19:23:39.489Z,53.00
2019-05-20T19:26:00.697Z,51.93
2019-05-20T19:28:22.009Z,51.03
2019-05-20T19:30:43.324Z,48.37
2019-05-20T19:33:05.001Z,49.80
2019-05-20T19:35:26.313Z,57.57
2019-05-20T19:37:47.994Z,52.73
2019-05-20T19:40:09.632Z,56.67
2019-05-20T19:42:32.422Z,56.00
2019-05-20T19:44:53.630Z,56.47
2019-05-20T19:47:14.816Z,56.37
2019-05-20T19:49:36.163Z,50.77
2019-05-20T19:51:57.622Z,59.30
2019-05-20T19:54:18.931Z,46.67
2019-05-20T19:56:40.134Z,46.33
2019-05-20T19:59:01.443Z,51.00
2019-05-20T20:01:22.749Z,49.53
2019-05-20T20:03:43.945Z,46.40
2019-05-20T20:06:05.168Z,53.30
2019-05-20T20:08:26.383Z,53.03
2019-05-20T20:10:47.699Z,51.43
2019-05-20T20:13:08.907Z,55.07
2019-05-20T20:15:45.796Z,57.77
2019-05-20T20:18:06.985Z,54.57
2019-05-20T20:20:28.208Z,50.43
2019-05-20T20:22:50.397Z,48.60
2019-05-20T20:25:11.693Z,46.73
2019-05-20T20:27:33.107Z,178.77
2019-05-20T20:29:54.462Z,47.53
2019-05-20T20:32:15.681Z,47.90
2019-05-20T20:34:36.989Z,48.93
2019-05-20T20:36:58.189Z,42.77
2019-05-20T20:39:19.417Z,47.33
2019-05-20T20:41:40.783Z,44.43
2019-05-20T20:47:13.460Z,47.90
2019-05-20T20:49:34.956Z,50.07
2019-05-20T20:51:56.169Z,46.83
2019-05-20T20:54:17.375Z,48.77
2019-05-20T20:56:38.662Z,53.40
2019-05-20T20:59:00.156Z,88.90
2019-05-20T21:01:22.460Z,63.33
2019-05-20T21:03:43.660Z,59.30
2019-05-20T21:06:04.916Z,50.57
2019-05-20T21:08:26.383Z,46.77
2019-05-20T21:10:47.591Z,47.63
2019-05-20T21:13:08.803Z,52.67
2019-05-20T21:15:30.008Z,46.23
2019-05-20T21:17:51.229Z,52.97
2019-05-20T21:20:12.424Z,58.17
2019-05-20T21:22:33.966Z,52.03
2019-05-20T21:24:55.157Z,53.50
2019-05-20T21:27:16.359Z,54.13
2019-05-20T21:29:37.623Z,65.17
2019-05-20T21:31:58.836Z,68.13
2019-05-20T21:34:21.131Z,61.80
2019-05-20T21:36:47.950Z,62.23
2019-05-20T21:39:05.554Z,62.17
2019-05-20T21:41:26.801Z,84.17
2019-05-20T21:43:47.998Z,66.97
2019-05-20T21:46:09.244Z,60.20
2019-05-20T21:48:31.974Z,60.30
2019-05-20T21:50:53.192Z,52.23
2019-05-20T21:53:14.440Z,46.17
2019-05-20T21:55:35.764Z,43.43
2019-05-20T21:57:56.966Z,34.47
2019-05-20T22:00:21.662Z,32.60
2019-05-20T22:02:44.805Z,33.17
2019-05-20T22:05:06.816Z,32.63
2019-05-20T22:07:28.547Z,31.33
2019-05-20T22:09:51.006Z,32.93
2019-05-20T22:12:12.208Z,33.70
2019-05-20T22:14:33.427Z,36.73
2019-05-20T22:16:54.692Z,40.50
2019-05-20T22:19:16.040Z,42.40
2019-05-20T22:21:47.819Z,43.63
2019-05-20T22:24:10.038Z,45.77
2019-05-20T22:26:31.253Z,44.60
2019-05-20T22:28:52.454Z,55.23
2019-05-20T22:31:13.679Z,59.17
2019-05-20T22:33:41.599Z,52.00
2019-05-20T22:35:58.009Z,52.40
2019-05-20T22:38:20.265Z,64.37
2019-05-20T22:40:42.355Z,63.10
2019-05-20T22:43:03.568Z,75.67
2019-05-20T22:45:24.763Z,71.20
2019-05-20T22:47:46.064Z,69.67
2019-05-20T22:50:07.430Z,70.93
2019-05-20T22:52:28.726Z,65.37
2019-05-20T22:54:49.957Z,65.13
2019-05-20T22:57:11.172Z,69.00
2019-05-20T22:59:32.354Z,65.70
2019-05-20T23:01:53.585Z,69.53
2019-05-20T23:04:14.895Z,65.73
2019-05-20T23:06:36.111Z,65.83
2019-05-20T23:08:57.324Z,62.67
2019-05-20T23:11:18.585Z,66.27
2019-05-20T23:13:39.895Z,65.70
2019-05-20T23:16:01.195Z,77.50
2019-05-20T23:18:22.426Z,62.27
2019-05-20T23:20:43.728Z,64.83
2019-05-20T23:23:04.950Z,68.77
2019-05-20T23:25:26.167Z,61.67
2019-05-20T23:27:47.396Z,76.60
2019-05-20T23:30:09.256Z,65.73
2019-05-20T23:32:30.483Z,64.07
2019-05-20T23:34:51.705Z,64.93
2019-05-20T23:37:12.922Z,73.83
2019-05-20T23:39:34.141Z,60.17
2019-05-20T23:41:55.346Z,66.77
2019-05-20T23:44:16.566Z,56.67
2019-05-20T23:46:37.786Z,60.67
2019-05-20T23:48:59.004Z,71.80
2019-05-20T23:51:20.201Z,57.80
2019-05-20T23:53:41.416Z,61.33
2019-05-20T23:56:03.092Z,56.87
2019-05-20T23:58:24.418Z,57.63
